Time;durP1;ratioP1;P1;durP2;ratioP2;P2;SDS_P1;SDS_P2;PMS_P1;PMS_P2;Temp;Humidity;BMP_temperature;BMP_pressure;BME280_temperature;BME280_humidity;BME280_pressure;Samples;Min_cycle;Max_cycle;Signal;HPM_P1;HPM_P2
2022/09/28 00:00:19;;;;;;;1.90;1.33;;;15.50;63.80;;;;;;5058904;28;20140;-71
2022/09/28 00:02:47;;;;;;;2.00;1.40;;;15.50;63.80;;;;;;5053520;28;20052;-71
2022/09/28 00:05:13;;;;;;;1.80;1.50;;;15.50;63.80;;;;;;5053490;28;20053;-70
2022/09/28 00:07:40;;;;;;;2.22;1.50;;;15.50;63.90;;;;;;5053386;28;20051;-71
2022/09/28 00:10:08;;;;;;;1.67;1.38;;;15.50;63.80;;;;;;5062761;28;20101;-70
2022/09/28 00:12:36;;;;;;;2.92;1.35;;;15.50;63.80;;;;;;5073440;28;20049;-71
2022/09/28 00:15:03;;;;;;;2.30;1.40;;;15.50;63.80;;;;;;5071862;28;20080;-71
2022/09/28 00:17:30;;;;;;;2.60;1.73;;;15.50;63.80;;;;;;5073464;28;20076;-71
2022/09/28 00:19:57;;;;;;;1.42;1.30;;;15.50;63.80;;;;;;5063663;28;20447;-71
2022/09/28 00:22:23;;;;;;;1.85;1.50;;;15.50;63.80;;;;;;5051934;28;20394;-71
2022/09/28 00:24:50;;;;;;;1.83;1.50;;;15.50;63.70;;;;;;5052171;28;20053;-71
2022/09/28 00:27:17;;;;;;;2.00;1.48;;;15.50;63.70;;;;;;5053024;28;20055;-71
2022/09/28 00:29:45;;;;;;;2.13;1.55;;;15.40;66.50;;;;;;5060027;28;20075;-71
2022/09/28 00:32:12;;;;;;;1.73;1.27;;;15.50;63.70;;;;;;5072846;28;20044;-69
2022/09/28 00:34:42;;;;;;;2.67;1.58;;;15.50;63.70;;;;;;5072852;28;20056;-71
2022/09/28 00:37:08;;;;;;;2.63;1.60;;;15.50;63.70;;;;;;5032687;28;20049;-71
2022/09/28 00:39:37;;;;;;;1.98;1.65;;;15.50;63.70;;;;;;5044857;28;20056;-71
2022/09/28 00:42:04;;;;;;;2.17;1.40;;;15.60;66.70;;;;;;5072695;28;20052;-71
2022/09/28 00:44:42;;;;;;;2.13;1.60;;;15.50;63.60;;;;;;5072741;28;20059;-71
2022/09/28 00:47:20;;;;;;;2.00;1.58;;;15.50;63.60;;;;;;5071249;28;20048;-70
2022/09/28 00:49:48;;;;;;;2.00;1.50;;;15.50;63.60;;;;;;5065116;28;20047;-71
2022/09/28 00:52:17;;;;;;;1.92;1.45;;;15.40;63.60;;;;;;5052426;28;20516;-71
2022/09/28 00:54:44;;;;;;;2.25;1.52;;;15.40;63.50;;;;;;5051435;28;20065;-71
2022/09/28 00:57:11;;;;;;;1.90;1.50;;;15.40;64.60;;;;;;5052384;28;20055;-71
2022/09/28 00:59:37;;;;;;;1.90;1.40;;;15.40;63.50;;;;;;5058258;28;20408;-71
2022/09/28 01:02:04;;;;;;;3.00;1.40;;;15.40;63.50;;;;;;5072187;28;20075;-70
2022/09/28 01:04:32;;;;;;;2.10;1.60;;;15.40;63.50;;;;;;5072552;28;20044;-71
2022/09/28 01:07:02;;;;;;;1.40;1.20;;;15.40;66.10;;;;;;5072188;28;20048;-71
2022/09/28 01:09:29;;;;;;;2.20;1.50;;;15.40;63.50;;;;;;5067751;28;20041;-71
2022/09/28 01:11:55;;;;;;;1.60;1.30;;;15.40;63.40;;;;;;5052085;28;20409;-71
2022/09/28 01:14:24;;;;;;;1.83;1.30;;;15.20;66.10;;;;;;5052430;28;20052;-71
2022/09/28 01:16:55;;;;;;;1.85;1.40;;;15.40;63.40;;;;;;5051141;28;20060;-70
2022/09/28 01:19:35;;;;;;;1.95;1.30;;;15.40;63.40;;;;;;5055279;28;20046;-71
2022/09/28 01:22:11;;;;;;;2.10;1.40;;;15.40;63.40;;;;;;5069669;28;20052;-71
2022/09/28 01:24:40;;;;;;;1.92;1.30;;;15.40;63.40;;;;;;5070848;28;20057;-71
2022/09/28 01:27:13;;;;;;;1.83;1.30;;;15.30;64.50;;;;;;5072085;28;20045;-71
2022/09/28 01:29:45;;;;;;;1.50;1.30;;;15.40;63.40;;;;;;5066222;28;20047;-70
2022/09/28 01:32:15;;;;;;;1.52;1.20;;;15.40;63.30;;;;;;5051796;28;20106;-71
2022/09/28 01:34:44;;;;;;;2.08;1.40;;;15.40;63.30;;;;;;5051885;28;20052;-71
2022/09/28 01:37:11;;;;;;;2.50;1.30;;;15.30;66.30;;;;;;5051996;28;20049;-71
2022/09/28 01:39:40;;;;;;;1.50;1.20;;;15.30;63.30;;;;;;5056688;28;20412;-71
2022/09/28 01:42:09;;;;;;;1.30;1.20;;;15.30;63.30;;;;;;5070625;28;20056;-71
2022/09/28 01:44:39;;;;;;;1.45;1.20;;;15.30;63.30;;;;;;5071802;28;20050;-71
2022/09/28 01:47:07;;;;;;;1.45;1.23;;;15.30;63.80;;;;;;5071707;28;20052;-71
2022/09/28 01:49:39;;;;;;;1.40;1.27;;;15.30;63.30;;;;;;5066285;28;20051;-70
2022/09/28 01:52:09;;;;;;;2.65;1.30;;;15.30;63.30;;;;;;5051646;28;20071;-71
2022/09/28 01:54:37;;;;;;;1.70;1.40;;;15.10;65.70;;;;;;5050708;28;20059;-71
2022/09/28 01:57:07;;;;;;;1.55;1.20;;;15.30;63.20;;;;;;5051765;28;20045;-71
2022/09/28 01:59:34;;;;;;;1.30;1.10;;;15.30;63.20;;;;;;5054424;28;20470;-71
2022/09/28 02:02:04;;;;;;;1.70;1.20;;;15.30;63.20;;;;;;5071361;28;20568;-71
2022/09/28 02:04:34;;;;;;;1.60;1.20;;;15.30;63.20;;;;;;5070426;28;20057;-71
2022/09/28 02:07:02;;;;;;;1.40;1.20;;;15.20;66.00;;;;;;5071708;28;20044;-70
2022/09/28 02:09:32;;;;;;;1.65;1.20;;;15.30;63.20;;;;;;5068057;28;20048;-70
2022/09/28 02:11:59;;;;;;;1.27;1.10;;;15.30;63.20;;;;;;5051412;28;20053;-70
2022/09/28 02:14:26;;;;;;;1.88;1.25;;;15.30;63.20;;;;;;5051367;28;20057;-71
2022/09/28 02:16:54;;;;;;;1.38;1.10;;;15.30;63.10;;;;;;5051552;28;20516;-71
2022/09/28 02:19:24;;;;;;;1.80;1.10;;;15.30;63.10;;;;;;5052794;28;20053;-71
2022/09/28 02:21:54;;;;;;;1.55;1.13;;;15.30;63.10;;;;;;5071386;28;20148;-71
2022/09/28 02:24:23;;;;;;;1.15;1.05;;;15.30;63.10;;;;;;5071529;28;20139;-70
2022/09/28 02:26:50;;;;;;;1.48;1.10;;;16.10;63.50;;;;;;5071376;28;20500;-71
2022/09/28 02:29:17;;;;;;;2.65;1.20;;;15.20;63.10;;;;;;5068688;28;20052;-70
2022/09/28 02:31:43;;;;;;;1.20;1.05;;;15.30;63.10;;;;;;5051123;28;20391;-71
2022/09/28 02:34:10;;;;;;;1.25;1.10;;;15.20;63.00;;;;;;5055081;28;20409;-71
2022/09/28 02:36:38;;;;;;;1.20;1.10;;;15.20;63.00;;;;;;5055310;28;20080;-71
2022/09/28 02:39:05;;;;;;;1.25;1.02;;;15.20;63.00;;;;;;5053989;28;20063;-71
2022/09/28 02:41:39;;;;;;;1.50;1.20;;;15.20;63.00;;;;;;5072807;28;20413;-71
2022/09/28 02:44:10;;;;;;;1.40;1.10;;;15.20;63.00;;;;;;5074095;28;20065;-71
2022/09/28 02:46:40;;;;;;;1.50;1.00;;;15.20;63.00;;;;;;5075139;28;20629;-71
2022/09/28 02:49:13;;;;;;;1.15;1.05;;;15.70;66.10;;;;;;5074981;28;20044;-71
2022/09/28 02:51:47;;;;;;;1.63;1.10;;;15.20;63.00;;;;;;5034848;28;20059;-70
2022/09/28 02:54:35;;;;;;;1.30;1.10;;;15.20;63.00;;;;;;5033502;28;20057;-70
2022/09/28 02:57:13;;;;;;;1.30;1.00;;;15.20;63.00;;;;;;5032322;28;20137;-70
2022/09/28 02:59:49;;;;;;;1.65;1.20;;;15.20;62.90;;;;;;5041106;28;20486;-71
2022/09/28 03:02:21;;;;;;;1.27;1.00;;;15.20;63.00;;;;;;5072613;28;20052;-70
2022/09/28 03:04:52;;;;;;;1.33;1.17;;;15.10;62.90;;;;;;5073709;28;20068;-70
2022/09/28 03:07:22;;;;;;;1.05;0.95;;;15.20;63.00;;;;;;5074707;28;20048;-71
2022/09/28 03:09:52;;;;;;;1.25;1.10;;;15.20;63.00;;;;;;5068423;28;20045;-71
2022/09/28 03:12:19;;;;;;;0.90;0.82;;;15.20;62.90;;;;;;5053382;28;20083;-71
2022/09/28 03:14:45;;;;;;;1.30;1.02;;;15.20;63.00;;;;;;5053360;28;20059;-71
2022/09/28 03:17:12;;;;;;;1.30;0.90;;;15.10;62.90;;;;;;5053337;28;20063;-71
2022/09/28 03:19:39;;;;;;;1.10;1.00;;;15.10;62.90;;;;;;5057301;28;20400;-71
2022/09/28 03:22:06;;;;;;;1.10;1.00;;;15.10;62.90;;;;;;5074363;28;20057;-69
2022/09/28 03:24:36;;;;;;;0.90;0.90;;;15.20;62.90;;;;;;5074348;28;20457;-70
2022/09/28 03:27:03;;;;;;;1.08;1.00;;;15.10;62.80;;;;;;5073168;28;20139;-71
2022/09/28 03:29:31;;;;;;;1.15;0.98;;;15.10;62.80;;;;;;5072263;28;20052;-69
2022/09/28 03:31:58;;;;;;;0.90;0.90;;;14.80;65.80;;;;;;5052768;28;20099;-69
2022/09/28 03:34:25;;;;;;;1.10;1.00;;;15.10;63.40;;;;;;5054342;28;20059;-70
2022/09/28 03:36:51;;;;;;;1.13;0.98;;;15.10;63.30;;;;;;5054137;28;20405;-69
2022/09/28 03:39:18;;;;;;;1.02;0.93;;;15.10;62.80;;;;;;5054247;28;20055;-69
2022/09/28 03:41:47;;;;;;;1.00;0.90;;;15.10;62.80;;;;;;5054132;28;20059;-70
2022/09/28 03:44:14;;;;;;;0.80;0.80;;;15.10;62.80;;;;;;5052628;28;20483;-69
2022/09/28 03:46:40;;;;;;;1.33;0.95;;;15.10;62.80;;;;;;5052165;28;20059;-68
2022/09/28 03:49:08;;;;;;;1.20;1.02;;;15.10;62.80;;;;;;5052612;28;20060;-70
2022/09/28 03:51:35;;;;;;;0.90;0.90;;;15.10;62.80;;;;;;5053950;28;20498;-68
2022/09/28 03:54:02;;;;;;;1.73;1.10;;;15.10;62.80;;;;;;5053673;28;20417;-68
2022/09/28 03:56:29;;;;;;;0.80;0.80;;;15.10;62.70;;;;;;5053846;28;20045;-68
2022/09/28 03:58:57;;;;;;;1.10;1.00;;;15.10;62.70;;;;;;5052753;28;20048;-69
2022/09/28 04:01:24;;;;;;;1.10;1.00;;;15.10;62.70;;;;;;5068571;28;20048;-69
2022/09/28 04:03:53;;;;;;;1.10;0.90;;;15.00;62.70;;;;;;5073906;28;20049;-68
2022/09/28 04:06:19;;;;;;;1.20;1.00;;;15.00;62.70;;;;;;5057685;28;20045;-70
2022/09/28 04:08:46;;;;;;;1.08;0.98;;;15.00;62.70;;;;;;5053376;28;20049;-69
2022/09/28 04:11:13;;;;;;;1.85;1.10;;;15.00;62.70;;;;;;5046301;28;20053;-69
2022/09/28 04:13:40;;;;;;;1.20;1.00;;;15.00;62.70;;;;;;5031839;28;20438;-69
2022/09/28 04:16:09;;;;;;;1.55;1.10;;;15.00;62.70;;;;;;5030148;28;20049;-69
2022/09/28 04:18:35;;;;;;;1.48;1.00;;;15.00;65.80;;;;;;5030705;28;20056;-69
2022/09/28 04:21:05;;;;;;;1.10;1.00;;;15.00;62.70;;;;;;5057211;28;20062;-69
2022/09/28 04:23:32;;;;;;;1.88;1.05;;;15.00;62.70;;;;;;5073167;28;20052;-70
2022/09/28 04:25:59;;;;;;;1.10;1.00;;;15.00;62.70;;;;;;5071903;28;20056;-70
2022/09/28 04:31:12;;;;;;;1.80;1.20;;;15.00;62.70;;;;;;5059448;28;20490;-70
2022/09/28 04:33:39;;;;;;;1.40;1.20;;;15.00;62.80;;;;;;5052769;28;20053;-70
2022/09/28 04:36:06;;;;;;;1.58;1.20;;;15.00;62.80;;;;;;5051593;28;20057;-70
2022/09/28 04:38:33;;;;;;;1.25;1.15;;;15.00;62.80;;;;;;5052771;28;20057;-70
2022/09/28 04:40:59;;;;;;;1.40;1.10;;;15.00;62.80;;;;;;5063425;28;20417;-69
2022/09/28 04:43:26;;;;;;;1.63;1.35;;;14.90;62.70;;;;;;5071993;28;20135;-69
2022/09/28 04:45:53;;;;;;;1.30;1.20;;;14.90;62.70;;;;;;5072900;28;20098;-70
2022/09/28 04:48:22;;;;;;;1.58;1.30;;;14.90;62.80;;;;;;5071213;28;20496;-69
2022/09/28 04:50:53;;;;;;;1.10;1.00;;;14.90;62.80;;;;;;5061133;28;20052;-70
2022/09/28 04:53:20;;;;;;;1.30;1.10;;;14.90;62.80;;;;;;5052719;28;20055;-70
2022/09/28 04:55:55;;;;;;;1.35;1.15;;;14.90;62.80;;;;;;5051917;28;20417;-70
2022/09/28 04:58:22;;;;;;;2.08;1.30;;;14.90;62.80;;;;;;5052435;28;20045;-70
2022/09/28 05:00:50;;;;;;;1.30;1.20;;;14.90;62.80;;;;;;5061831;28;20420;-70
2022/09/28 05:03:16;;;;;;;1.88;1.40;;;14.90;62.80;;;;;;5071431;28;20056;-69
2022/09/28 05:05:46;;;;;;;1.50;1.30;;;14.90;62.80;;;;;;5072424;28;20052;-70
2022/09/28 05:08:13;;;;;;;1.38;1.27;;;14.90;62.80;;;;;;5072466;28;20124;-70
2022/09/28 05:10:40;;;;;;;1.58;1.30;;;14.90;62.90;;;;;;5063422;28;20413;-70
2022/09/28 05:13:06;;;;;;;1.33;1.17;;;14.90;62.90;;;;;;5051904;28;20045;-69
2022/09/28 05:15:34;;;;;;;2.28;1.30;;;14.40;65.60;;;;;;5052087;28;20048;-69
2022/09/28 05:18:00;;;;;;;1.30;1.20;;;14.80;62.80;;;;;;5052142;28;20056;-70
2022/09/28 05:20:27;;;;;;;1.70;1.25;;;14.90;62.90;;;;;;5058091;28;20056;-70
2022/09/28 05:22:55;;;;;;;1.60;1.27;;;14.90;62.90;;;;;;5072153;28;20054;-70
2022/09/28 05:25:22;;;;;;;1.70;1.38;;;14.90;62.90;;;;;;5071782;28;20045;-70
2022/09/28 05:27:49;;;;;;;1.42;1.23;;;14.90;63.40;;;;;;5071893;28;20044;-69
2022/09/28 05:30:15;;;;;;;1.33;1.23;;;13.90;65.70;;;;;;5066621;28;20082;-69
2022/09/28 05:32:43;;;;;;;1.27;1.17;;;14.80;62.80;;;;;;5051931;28;20067;-69
2022/09/28 05:35:09;;;;;;;1.20;1.10;;;14.80;62.80;;;;;;5051857;28;20138;-69
2022/09/28 05:37:37;;;;;;;1.33;1.20;;;14.80;62.80;;;;;;5051913;28;20052;-70
2022/09/28 05:40:06;;;;;;;1.25;1.13;;;14.80;62.80;;;;;;5054482;28;20041;-69
2022/09/28 05:42:32;;;;;;;1.35;1.10;;;14.80;62.80;;;;;;5071107;28;20063;-70
2022/09/28 05:44:59;;;;;;;1.48;1.13;;;14.80;62.90;;;;;;5059873;28;20075;-70
2022/09/28 05:47:26;;;;;;;1.20;1.10;;;14.80;62.90;;;;;;5051648;28;20049;-70
2022/09/28 05:49:53;;;;;;;1.20;1.10;;;14.80;62.90;;;;;;5050757;28;20059;-73
2022/09/28 05:52:19;;;;;;;1.85;1.15;;;14.80;62.90;;;;;;5070685;28;20062;-70
2022/09/28 05:54:46;;;;;;;0.98;0.93;;;14.80;62.90;;;;;;5068877;28;20056;-70
2022/09/28 05:57:14;;;;;;;1.20;1.10;;;14.80;62.90;;;;;;5050958;28;20313;-72
2022/09/28 05:59:41;;;;;;;1.00;0.90;;;14.90;62.90;;;;;;5049213;28;20059;-71
2022/09/28 06:02:09;;;;;;;1.10;1.00;;;14.90;62.90;;;;;;5050278;28;20045;-72
2022/09/28 06:04:36;;;;;;;1.63;1.13;;;14.90;62.90;;;;;;5050633;28;20067;-70
2022/09/28 06:07:03;;;;;;;1.17;1.08;;;14.90;62.90;;;;;;5054393;28;20066;-70
2022/09/28 06:09:30;;;;;;;1.10;1.00;;;14.90;62.90;;;;;;5073376;28;20412;-71
2022/09/28 06:11:58;;;;;;;0.90;0.90;;;15.40;66.40;;;;;;5074256;28;20052;-70
2022/09/28 06:14:27;;;;;;;1.02;1.00;;;15.00;62.90;;;;;;5065886;28;20059;-70
2022/09/28 06:16:53;;;;;;;1.10;1.00;;;15.00;62.90;;;;;;5072046;28;20516;-71
2022/09/28 06:19:20;;;;;;;1.10;1.00;;;15.00;62.90;;;;;;5074460;28;20078;-71
2022/09/28 06:21:47;;;;;;;1.10;1.00;;;15.00;62.90;;;;;;5074097;28;20056;-71
2022/09/28 06:24:14;;;;;;;0.90;0.90;;;15.10;62.90;;;;;;5074482;28;20056;-71
2022/09/28 06:26:40;;;;;;;1.25;0.90;;;15.00;62.90;;;;;;5058285;28;20049;-71
2022/09/28 06:29:07;;;;;;;0.80;0.80;;;15.90;66.40;;;;;;5053976;28;20057;-71
2022/09/28 06:31:35;;;;;;;1.10;1.00;;;15.10;62.90;;;;;;5054192;28;20140;-71
2022/09/28 06:34:02;;;;;;;1.00;0.90;;;15.10;62.80;;;;;;5055486;28;20049;-71
2022/09/28 06:36:30;;;;;;;0.68;0.68;;;15.20;62.90;;;;;;5067533;28;20067;-71
2022/09/28 06:38:56;;;;;;;1.05;0.93;;;15.10;62.80;;;;;;5068996;28;20409;-71
2022/09/28 06:41:23;;;;;;;0.90;0.80;;;15.20;62.90;;;;;;5053507;28;20059;-71
2022/09/28 06:43:51;;;;;;;1.02;0.98;;;15.20;62.80;;;;;;5058435;28;20046;-71
2022/09/28 06:46:17;;;;;;;1.10;0.98;;;15.20;62.80;;;;;;5074413;28;20456;-71
2022/09/28 06:48:45;;;;;;;1.20;1.00;;;15.20;62.80;;;;;;5074886;28;20139;-71
2022/09/28 06:51:12;;;;;;;0.80;0.80;;;15.30;62.80;;;;;;5073798;28;20064;-71
2022/09/28 06:53:39;;;;;;;0.70;0.70;;;15.30;62.80;;;;;;5067894;28;20412;-71
2022/09/28 06:56:08;;;;;;;1.05;0.90;;;15.30;62.80;;;;;;5054911;28;20055;-71
2022/09/28 06:58:34;;;;;;;0.70;0.70;;;15.30;62.80;;;;;;5053799;28;20486;-70
2022/09/28 07:01:01;;;;;;;0.70;0.70;;;15.30;62.80;;;;;;5054585;28;20053;-70
2022/09/28 07:03:28;;;;;;;1.00;0.85;;;15.30;62.70;;;;;;5057018;28;20052;-70
2022/09/28 07:05:56;;;;;;;0.80;0.80;;;15.30;62.70;;;;;;5070904;28;20076;-70
2022/09/28 07:08:25;;;;;;;0.70;0.70;;;15.40;62.80;;;;;;5054079;28;20053;-70
2022/09/28 07:10:55;;;;;;;0.90;0.90;;;15.40;62.70;;;;;;5054235;28;20059;-71
2022/09/28 07:13:22;;;;;;;0.88;0.88;;;15.40;62.70;;;;;;5055457;28;20140;-71
2022/09/28 07:15:48;;;;;;;0.60;0.60;;;15.40;62.70;;;;;;5065580;28;20055;-71
2022/09/28 07:18:17;;;;;;;0.70;0.70;;;15.40;63.30;;;;;;5053644;28;20048;-71
2022/09/28 07:20:44;;;;;;;0.82;0.80;;;15.40;62.70;;;;;;5054182;28;20048;-71
2022/09/28 07:23:12;;;;;;;0.88;0.88;;;15.40;62.70;;;;;;5053431;28;20056;-71
2022/09/28 07:25:44;;;;;;;0.77;0.77;;;15.50;62.70;;;;;;5054380;28;20132;-71
2022/09/28 07:28:11;;;;;;;0.70;0.70;;;15.50;62.70;;;;;;5052415;28;20053;-71
2022/09/28 07:30:38;;;;;;;0.75;0.75;;;15.50;62.70;;;;;;5053071;28;20063;-71
2022/09/28 07:33:05;;;;;;;1.08;0.90;;;15.50;62.70;;;;;;5053138;28;20052;-71
2022/09/28 07:35:33;;;;;;;0.98;0.88;;;15.50;62.70;;;;;;5053298;28;20086;-71
2022/09/28 07:38:00;;;;;;;0.70;0.70;;;15.50;62.60;;;;;;5050070;28;20494;-71
2022/09/28 07:43:13;;;;;;;0.75;0.75;;;15.60;62.60;;;;;;5052548;28;20053;-70
2022/09/28 07:45:39;;;;;;;0.80;0.80;;;15.60;62.60;;;;;;5052358;28;20080;-70
2022/09/28 07:48:06;;;;;;;0.80;0.80;;;15.60;62.60;;;;;;5052632;28;20041;-70
2022/09/28 07:50:33;;;;;;;0.70;0.70;;;15.70;62.60;;;;;;5051836;28;20051;-70
2022/09/28 07:53:00;;;;;;;0.82;0.82;;;15.70;62.60;;;;;;5052493;28;20481;-70
2022/09/28 07:55:28;;;;;;;1.00;0.90;;;15.70;62.50;;;;;;5052446;28;20060;-70
2022/09/28 07:57:55;;;;;;;0.73;0.70;;;15.70;62.50;;;;;;5051004;28;20045;-70
2022/09/28 08:00:22;;;;;;;0.70;0.70;;;15.70;62.50;;;;;;5051924;28;20060;-70
2022/09/28 08:02:48;;;;;;;0.60;0.60;;;15.80;62.50;;;;;;5051636;28;20048;-70
2022/09/28 08:05:15;;;;;;;0.70;0.70;;;15.80;62.40;;;;;;5049370;28;20479;-70
2022/09/28 08:07:43;;;;;;;0.60;0.60;;;15.80;62.40;;;;;;5057872;28;20041;-70
2022/09/28 08:10:09;;;;;;;0.80;0.80;;;15.90;62.40;;;;;;5071497;28;20048;-70
2022/09/28 08:12:39;;;;;;;0.85;0.80;;;15.90;62.40;;;;;;5054695;28;20061;-71
2022/09/28 08:15:11;;;;;;;0.80;0.80;;;15.90;62.40;;;;;;5051319;28;20059;-70
2022/09/28 08:17:38;;;;;;;0.90;0.90;;;16.00;62.40;;;;;;5051808;28;20057;-70
2022/09/28 08:22:50;;;;;;;1.75;0.80;;;16.00;62.30;;;;;;5053218;28;20044;-71
2022/09/28 08:25:16;;;;;;;1.00;0.90;;;16.10;62.30;;;;;;5052316;28;20061;-70
2022/09/28 08:27:44;;;;;;;0.75;0.75;;;16.10;62.20;;;;;;5053070;28;20410;-71
2022/09/28 08:30:12;;;;;;;0.80;0.80;;;16.10;62.20;;;;;;5051669;28;20056;-71
2022/09/28 08:32:41;;;;;;;0.70;0.70;;;16.20;62.20;;;;;;5052158;28;20057;-70
2022/09/28 08:35:08;;;;;;;0.80;0.77;;;16.20;62.10;;;;;;5052046;28;20052;-70
2022/09/28 08:37:35;;;;;;;0.70;0.70;;;16.20;62.10;;;;;;5050758;28;20052;-70
2022/09/28 08:40:02;;;;;;;0.80;0.80;;;16.20;62.10;;;;;;5052611;28;20045;-71
2022/09/28 08:42:32;;;;;;;0.90;0.70;;;16.20;62.10;;;;;;5051480;28;20107;-70
2022/09/28 08:45:05;;;;;;;0.70;0.70;;;16.20;62.10;;;;;;5049909;28;20067;-70
2022/09/28 08:50:20;;;;;;;0.80;0.80;;;16.20;62.10;;;;;;5048216;28;20056;-70
2022/09/28 08:52:48;;;;;;;1.02;0.90;;;16.20;62.10;;;;;;5052188;28;20071;-70
2022/09/28 08:55:16;;;;;;;0.80;0.80;;;16.20;62.10;;;;;;5051252;28;20071;-70
2022/09/28 08:57:45;;;;;;;0.95;0.80;;;16.10;62.10;;;;;;5050993;28;20417;-70
2022/09/28 09:00:18;;;;;;;1.25;0.90;;;16.10;62.10;;;;;;5051490;28;20063;-70
2022/09/28 09:02:45;;;;;;;0.70;0.70;;;16.20;62.20;;;;;;5071504;28;20056;-70
2022/09/28 09:05:13;;;;;;;0.80;0.80;;;16.10;62.10;;;;;;5072430;28;20525;-71
2022/09/28 09:07:57;;;;;;;0.93;0.85;;;16.10;62.10;;;;;;5072205;28;20044;-71
2022/09/28 09:10:37;;;;;;;0.90;0.90;;;16.10;62.10;;;;;;5069277;28;20057;-71
2022/09/28 09:13:11;;;;;;;0.75;0.75;;;16.10;62.20;;;;;;5052184;28;20067;-71
2022/09/28 09:15:45;;;;;;;0.80;0.80;;;16.10;62.20;;;;;;5051075;28;20053;-71
2022/09/28 09:18:22;;;;;;;0.80;0.70;;;16.10;62.20;;;;;;5052458;28;20055;-70
2022/09/28 09:20:51;;;;;;;0.95;0.85;;;16.00;62.20;;;;;;5056287;28;20053;-70
2022/09/28 09:23:28;;;;;;;0.70;0.70;;;16.10;62.30;;;;;;5072197;28;20057;-70
2022/09/28 09:25:56;;;;;;;2.03;0.77;;;16.10;62.30;;;;;;5070311;28;20060;-71
2022/09/28 09:28:38;;;;;;;0.80;0.70;;;16.00;62.30;;;;;;5072349;28;20412;-71
2022/09/28 09:31:14;;;;;;;1.17;0.80;;;16.00;62.30;;;;;;5063071;28;20045;-71
2022/09/28 09:33:56;;;;;;;0.80;0.80;;;16.00;62.30;;;;;;5063676;28;20059;-71
2022/09/28 09:36:29;;;;;;;1.00;0.88;;;16.00;62.30;;;;;;5065839;28;20083;-71
2022/09/28 09:39:03;;;;;;;0.88;0.82;;;16.00;62.30;;;;;;5051724;28;20048;-71
2022/09/28 09:41:36;;;;;;;0.80;0.80;;;16.00;62.40;;;;;;5069551;28;20059;-71
2022/09/28 09:44:11;;;;;;;0.70;0.70;;;16.00;62.40;;;;;;5071050;28;20059;-71
2022/09/28 09:46:42;;;;;;;0.85;0.85;;;16.00;62.90;;;;;;5062104;28;20409;-71
2022/09/28 09:49:12;;;;;;;1.38;0.90;;;16.00;62.40;;;;;;5047910;28;20053;-71
2022/09/28 09:51:41;;;;;;;0.75;0.75;;;16.00;62.40;;;;;;5053913;28;20049;-71
2022/09/28 09:54:12;;;;;;;1.15;0.90;;;16.00;62.40;;;;;;5051663;28;20067;-71
2022/09/28 09:56:41;;;;;;;2.08;0.70;;;16.00;62.40;;;;;;5050983;28;20057;-71
2022/09/28 09:59:10;;;;;;;0.90;0.85;;;16.00;62.40;;;;;;5050302;28;20080;-72
2022/09/28 10:01:38;;;;;;;1.13;0.80;;;16.00;62.40;;;;;;5052137;28;20059;-71
2022/09/28 10:04:11;;;;;;;1.20;0.90;;;16.00;62.30;;;;;;5050652;28;20045;-72
2022/09/28 10:06:38;;;;;;;1.20;0.95;;;16.00;62.40;;;;;;5049830;28;20064;-70
2022/09/28 10:09:05;;;;;;;1.88;0.80;;;16.00;62.30;;;;;;5051434;28;20041;-71
2022/09/28 10:11:35;;;;;;;1.23;0.90;;;16.00;62.40;;;;;;5050495;28;20049;-71
2022/09/28 10:14:02;;;;;;;1.10;0.90;;;16.00;62.40;;;;;;5049023;28;20506;-72
2022/09/28 10:16:30;;;;;;;0.82;0.82;;;16.00;62.40;;;;;;5049478;28;20063;-72
2022/09/28 10:18:56;;;;;;;1.30;0.90;;;16.00;62.40;;;;;;5050472;28;20667;-72
2022/09/28 10:21:24;;;;;;;1.05;0.93;;;16.00;62.50;;;;;;5068502;28;20056;-71
2022/09/28 10:23:55;;;;;;;0.80;0.80;;;16.00;62.50;;;;;;5069481;28;20087;-72
2022/09/28 10:26:23;;;;;;;0.93;0.90;;;16.00;62.50;;;;;;5070810;28;20052;-72
2022/09/28 10:28:53;;;;;;;1.00;0.90;;;16.00;62.60;;;;;;5070460;28;20080;-72
2022/09/28 10:31:39;;;;;;;0.80;0.80;;;16.00;62.50;;;;;;5052055;28;20436;-72
2022/09/28 10:34:06;;;;;;;;;;;16.00;62.50;;;;;;5051089;28;20057;-73
2022/09/28 10:36:42;;;;;;;1.00;0.90;;;15.90;62.50;;;;;;5051580;28;19921;-71
2022/09/28 10:39:27;;;;;;;0.95;0.80;;;15.90;62.70;;;;;;5050548;28;20086;-72
2022/09/28 10:41:54;;;;;;;0.88;0.80;;;15.90;62.60;;;;;;5030250;28;20064;-71
2022/09/28 10:44:20;;;;;;;0.80;0.80;;;15.90;62.60;;;;;;5031685;28;20053;-72
2022/09/28 10:46:55;;;;;;;1.00;0.90;;;16.20;62.80;;;;;;5050100;28;20045;-72
2022/09/28 10:49:22;;;;;;;0.70;0.70;;;16.00;62.60;;;;;;5051130;28;20061;-71
2022/09/28 10:51:52;;;;;;;0.77;0.77;;;16.00;62.70;;;;;;5069920;28;20052;-71
2022/09/28 10:54:19;;;;;;;0.80;0.80;;;15.90;62.60;;;;;;5051926;28;20088;-72
2022/09/28 10:56:46;;;;;;;0.82;0.77;;;16.00;62.60;;;;;;5050866;28;20048;-72
2022/09/28 10:59:23;;;;;;;1.42;0.93;;;16.00;62.50;;;;;;5053706;28;20056;-72
2022/09/28 11:01:53;;;;;;;0.70;0.70;;;16.00;62.50;;;;;;5053090;28;20048;-72
2022/09/28 11:04:20;;;;;;;0.80;0.80;;;16.00;62.50;;;;;;5056331;28;20059;-72
2022/09/28 11:06:47;;;;;;;1.15;0.80;;;16.10;62.50;;;;;;5051670;28;20156;-72
2022/09/28 11:09:24;;;;;;;0.93;0.77;;;16.00;62.50;;;;;;5053805;28;20067;-71
2022/09/28 11:11:50;;;;;;;1.45;0.82;;;16.10;62.50;;;;;;5053575;28;20393;-72
2022/09/28 11:14:24;;;;;;;0.90;0.80;;;16.20;62.50;;;;;;5054398;28;20059;-71
2022/09/28 11:17:14;;;;;;;0.73;0.73;;;16.20;62.50;;;;;;5050480;28;20132;-70
2022/09/28 11:19:41;;;;;;;0.73;0.70;;;16.20;62.50;;;;;;5051559;28;20115;-71
2022/09/28 11:22:20;;;;;;;2.83;0.80;;;16.20;62.50;;;;;;5053238;28;20056;-70
2022/09/28 11:24:48;;;;;;;0.80;0.80;;;16.20;62.50;;;;;;5050645;28;20052;-71
2022/09/28 11:27:22;;;;;;;0.70;0.70;;;16.20;62.50;;;;;;5053367;28;20494;-71
2022/09/28 11:29:55;;;;;;;1.70;0.70;;;16.30;62.50;;;;;;5053230;28;20075;-71
2022/09/28 11:32:22;;;;;;;0.80;0.80;;;16.30;62.50;;;;;;5058523;28;20061;-71
2022/09/28 11:34:49;;;;;;;0.80;0.70;;;16.30;62.40;;;;;;5056579;28;20417;-70
2022/09/28 11:37:30;;;;;;;0.88;0.70;;;16.30;62.40;;;;;;5052852;28;20059;-71
2022/09/28 11:40:03;;;;;;;0.70;0.70;;;16.30;62.40;;;;;;5071793;28;20507;-72
2022/09/28 11:42:40;;;;;;;0.75;0.75;;;16.30;62.40;;;;;;5072953;28;20527;-71
2022/09/28 11:45:18;;;;;;;0.70;0.70;;;16.30;62.30;;;;;;5072615;28;20052;-71
2022/09/28 11:47:50;;;;;;;0.80;0.80;;;16.40;62.30;;;;;;5062921;28;20433;-70
2022/09/28 11:50:21;;;;;;;2.90;0.77;;;16.50;62.30;;;;;;5053740;28;20079;-71
2022/09/28 11:52:51;;;;;;;0.70;0.70;;;16.40;62.30;;;;;;5053806;28;20071;-71
2022/09/28 11:55:24;;;;;;;0.70;0.70;;;16.40;62.20;;;;;;5052909;28;20045;-71
2022/09/28 11:57:54;;;;;;;1.00;0.75;;;16.50;62.30;;;;;;5051315;28;20521;-71
2022/09/28 12:00:21;;;;;;;1.10;0.77;;;16.50;62.30;;;;;;5052102;28;20482;-71
2022/09/28 12:02:50;;;;;;;0.75;0.70;;;16.50;62.30;;;;;;5053510;28;20517;-71
2022/09/28 12:05:19;;;;;;;0.98;0.70;;;16.50;62.30;;;;;;5041432;28;20061;-71
2022/09/28 12:07:48;;;;;;;4.50;0.70;;;16.50;62.30;;;;;;5053744;28;20445;-71
2022/09/28 12:10:18;;;;;;;2.13;0.60;;;16.50;62.30;;;;;;5051762;28;20103;-71
2022/09/28 12:12:47;;;;;;;1.35;0.73;;;16.50;62.20;;;;;;5053507;28;20425;-72
2022/09/28 12:15:16;;;;;;;1.08;0.70;;;16.50;62.20;;;;;;5053415;28;20065;-73
2022/09/28 12:17:45;;;;;;;0.70;0.70;;;16.50;62.20;;;;;;5050113;28;20065;-72
2022/09/28 12:20:16;;;;;;;1.67;0.75;;;16.50;62.20;;;;;;5051449;28;20049;-71
2022/09/28 12:22:45;;;;;;;1.20;0.80;;;16.50;62.30;;;;;;5050610;28;20057;-72
2022/09/28 12:25:14;;;;;;;2.65;0.80;;;16.50;62.30;;;;;;5053359;28;20075;-71
2022/09/28 12:27:41;;;;;;;1.50;0.63;;;16.50;62.30;;;;;;5052489;28;20059;-72
2022/09/28 12:30:14;;;;;;;2.90;0.70;;;16.50;62.40;;;;;;5053017;28;20052;-72
2022/09/28 12:32:43;;;;;;;0.70;0.70;;;16.50;62.30;;;;;;5060082;28;20056;-72
2022/09/28 12:35:13;;;;;;;0.60;0.60;;;16.50;62.40;;;;;;5073253;28;20049;-72
2022/09/28 12:37:54;;;;;;;1.90;0.70;;;16.50;62.30;;;;;;5071932;28;20079;-72
2022/09/28 12:40:36;;;;;;;1.17;0.80;;;16.50;62.30;;;;;;5071634;28;20052;-72
2022/09/28 12:43:11;;;;;;;2.60;0.68;;;16.50;62.30;;;;;;5061338;28;20132;-72
2022/09/28 12:45:51;;;;;;;1.13;0.70;;;16.50;62.30;;;;;;5051486;28;20063;-72
2022/09/28 12:48:39;;;;;;;0.68;0.60;;;16.50;62.30;;;;;;5053119;28;20048;-72
2022/09/28 12:51:11;;;;;;;0.73;0.60;;;16.50;62.30;;;;;;5049087;28;20049;-72
2022/09/28 12:53:56;;;;;;;0.80;0.70;;;16.50;62.40;;;;;;5066837;28;20056;-72
2022/09/28 12:56:26;;;;;;;0.65;0.50;;;16.50;62.30;;;;;;5070971;28;20056;-72
2022/09/28 12:58:59;;;;;;;0.77;0.70;;;16.50;62.40;;;;;;5071411;28;20056;-72
2022/09/28 13:01:37;;;;;;;0.60;0.60;;;16.50;62.40;;;;;;5072397;28;20059;-72
2022/09/28 13:04:31;;;;;;;0.60;0.60;;;16.40;62.40;;;;;;5052770;28;20414;-72
2022/09/28 13:07:02;;;;;;;1.05;0.70;;;16.40;62.40;;;;;;5046628;28;20063;-72
2022/09/28 13:09:30;;;;;;;0.82;0.70;;;16.40;62.40;;;;;;5052509;28;20498;-72